Arbela, MO

5:47 PM CDT on July 30, 2016 (GMT -0500)
Cedar Kahoka | | Change Station
Active Advisory: Special Statement

Elev 705 ft 40.42 °N, 91.73 °W | Updated 8 minutes ago

Partly Cloudy
Partly Cloudy
86.9 °F
Feels Like 92 °F
N
0.0
Wind Variable Wind from SW

Today
High -- | Low -- °F
--% Chance of Precip.
Yesterday
High -- | Low -- °F
Precip. -- in
Pressure 29.95 in
Visibility 10.0 miles
Clouds Few 3200 ft
Few 5500 ft
Few 8000 ft
Heat Index 92 °F
Dew Point 70 °F
Humidity 57%
Rainfall 0.00 in
Snow Depth Not available.
6:03 AM 8:24 PM
Waning Crescent, 10% visible
METAR KEOK 302235Z AUTO 23005KT 10SM FEW032 FEW055 FEW080 27/19 A2995 RMK AO2
Pressure 29.95 in
Visibility 10.0 miles
Clouds Few 3200 ft
Few 5500 ft
Few 8000 ft
Heat Index 92 °F
Dew Point 70 °F
Humidity 57%
Rainfall 0.00 in
Snow Depth Not available.
6:03 AM 8:24 PM
Waning Crescent, 10% visible
METAR KEOK 302235Z AUTO 23005KT 10SM FEW032 FEW055 FEW080 27/19 A2995 RMK AO2

10-Day Weather Forecast

Almanac

Astronomy

Jul. 30, 2016 Rise Set
Actual Time
Civil Twilight
Nautical Twilight
Astronomical Twilight
Moon
Length of Visible Light
Length of Day
Tomorrow will be .
, % of the Moon is Illuminated

Today's Extremes

State Highs State Lows

Community

WunderPhotos

Upload Photos

1,928,670 photos uploaded!

WunderBlog® & News

Nearby

Air Quality

  Air Quality AQ Index Pollutant
Not available.

Snow Depth

Station Depth Elevation

Earthquake Activity

City Distance Mag. Time & Date
Minimum magnitude displayed is 2.5.

Coastal Water Temperatures

Place Temperature

Stations

Nearby Weather Stations

Station Location Temp. Windchill Dew Point Humidity Wind Precip. Elev Updated Type
                   

Watches & Warnings

Special Statement
Issued: 2:54 PM CDT Jul. 30, 2016 – National Weather Service

... Brief funnel clouds are possible this afternoon...

Heating along several weak boundaries are producing showers and
possibly a few thunderstorms across the region. The combination of
low clouds and the weak boundaries will allow brief funnel clouds
to develop. Any funnel clouds that form will not last very long
and are not expected to cause any damage since they will remain
well above the ground.


254 PM CDT Sat Jul 30 2016

... Brief funnel clouds are possible this afternoon...

Heating along several weak boundaries are producing showers and
possibly a few thunderstorms across the region. The combination of
low clouds and the weak boundaries will allow brief funnel clouds
to develop. Any funnel clouds that form will not last very long
and are not expected to cause any damage since they will remain
well above the ground.